Skip Navigation Links Skip Navigation Links

Current Weather

Person County, Roxboro, N.C.

For information only: do not use for flight planning or navigation.
Latest weather
Observation time Tuesday, June 25, 2019 2:00 PM EDT
Local time Tuesday, June 25, 2019 2:32 PM EDT
Flight conditions Visual Meteorological Conditions
Winds
Wind direction Northwest (320°)
Wind speed 8 mph
Visibility 10 mi.
Sky condition
Ceiling unlimited
Cloud layer scattered clouds 4,600 ft.
Cloud layer scattered clouds 5,000 ft.
Temperature 82°F
Dewpoint 64°F
Altimeter 30.00 in.Hg
Derived measurements
Relative humidity 55%
Heat index 84°F
Density altitude 2298 ft.
Remarks
Fully automated report.
Automated weather observing station with precipitation discriminator.
METAR KTDF 251800Z AUTO 32007KT 10SM SCT046 SCT050 28/18 A3000 RMK AO2

Settings

Location code

InnerDrive.Weather 4.0.6770.0 Release CLR 4.0.30319.42000
Copyright ©2018 Inner Drive Technology. All rights reserved. Portions Copyright ©1986-2018 David Braverman.

Find weather

Site navigation


Skip Navigation Links

Place info

Page info

PayPal - The safer, easier way to pay online!

Return home.

Copyright ©2019 Inner Drive Technology. Purveyors of fine, hand-crafted computer software. Page printed 2019-06-25T18:32:37 UTC.